createdAt,value
2017-07-05T00:01:29.739Z,4.35
2017-07-05T00:03:57.263Z,4.32
2017-07-05T00:06:25.567Z,3.45
2017-07-05T00:08:53.863Z,4.20
2017-07-05T00:11:21.399Z,4.15
2017-07-05T00:13:49.671Z,3.97
2017-07-05T00:16:17.960Z,4.40
2017-07-05T00:18:45.467Z,3.75
2017-07-05T00:21:13.019Z,3.62
2017-07-05T00:23:40.526Z,4.37
2017-07-05T00:26:08.031Z,4.05
2017-07-05T00:28:35.556Z,3.62
2017-07-05T00:31:03.828Z,4.70
2017-07-05T00:33:32.119Z,4.10
2017-07-05T00:35:59.650Z,3.85
2017-07-05T00:38:27.147Z,3.92
2017-07-05T00:40:54.687Z,4.20
2017-07-05T00:43:22.222Z,3.92
2017-07-05T00:45:49.815Z,3.70
2017-07-05T00:48:17.310Z,4.00
2017-07-05T00:50:44.824Z,4.70
2017-07-05T00:53:13.114Z,4.20
2017-07-05T00:55:40.622Z,4.20
2017-07-05T00:58:08.161Z,3.60
2017-07-05T01:00:35.663Z,4.10
2017-07-05T01:03:03.930Z,3.65
2017-07-05T01:05:31.451Z,4.65
2017-07-05T01:07:58.957Z,3.50
2017-07-05T01:10:27.251Z,3.70
2017-07-05T01:12:55.533Z,3.87
2017-07-05T01:15:23.797Z,4.22
2017-07-05T01:17:52.111Z,3.75
2017-07-05T01:20:19.615Z,4.00
2017-07-05T01:22:47.133Z,4.18
2017-07-05T01:25:14.638Z,4.68
2017-07-05T01:27:42.910Z,4.35
2017-07-05T01:30:10.418Z,4.70
2017-07-05T01:32:37.931Z,4.10
2017-07-05T01:35:05.456Z,4.10
2017-07-05T01:37:32.964Z,4.45
2017-07-05T01:40:01.235Z,4.20
2017-07-05T01:42:28.750Z,3.60
2017-07-05T01:44:56.255Z,4.65
2017-07-05T01:47:24.542Z,4.97
2017-07-05T01:49:52.815Z,4.25
2017-07-05T01:52:21.091Z,4.30
2017-07-05T01:54:49.370Z,3.92
2017-07-05T01:57:17.639Z,4.00
2017-07-05T01:59:45.927Z,3.62
2017-07-05T02:02:13.434Z,3.95
2017-07-05T02:04:40.938Z,4.50
2017-07-05T02:07:09.220Z,4.30
2017-07-05T02:09:37.487Z,3.80
2017-07-05T02:12:05.775Z,3.92
2017-07-05T02:14:33.277Z,4.22
2017-07-05T02:17:00.775Z,4.40
2017-07-05T02:19:29.066Z,4.30
2017-07-05T02:21:57.338Z,4.18
2017-07-05T02:24:24.867Z,4.30
2017-07-05T02:26:52.371Z,4.55
2017-07-05T02:29:19.877Z,4.60
2017-07-05T02:31:47.394Z,4.20
2017-07-05T02:34:14.907Z,4.20
2017-07-05T02:36:42.430Z,4.82
2017-07-05T02:39:09.940Z,4.53
2017-07-05T02:41:37.451Z,4.43
2017-07-05T02:44:04.974Z,4.65
2017-07-05T02:46:32.474Z,5.03
2017-07-05T02:48:59.995Z,4.18
2017-07-05T02:51:28.262Z,4.60
2017-07-05T02:53:55.767Z,4.37
2017-07-05T02:56:23.289Z,4.40
2017-07-05T02:58:51.550Z,4.65
2017-07-05T03:01:19.839Z,4.50
2017-07-05T03:03:48.107Z,4.60
2017-07-05T03:06:16.375Z,5.18
2017-07-05T03:08:43.895Z,4.97
2017-07-05T03:11:11.393Z,5.70
2017-07-05T03:13:38.913Z,4.80
2017-07-05T03:16:06.420Z,4.30
2017-07-05T03:18:34.690Z,5.03
2017-07-05T03:21:02.202Z,4.57
2017-07-05T03:23:29.701Z,5.00
2017-07-05T03:25:57.266Z,4.10
2017-07-05T03:28:24.775Z,5.43
2017-07-05T03:30:52.286Z,4.70
2017-07-05T03:33:20.579Z,3.85
2017-07-05T03:35:48.859Z,5.20
2017-07-05T03:38:16.412Z,5.30
2017-07-05T03:40:44.679Z,4.93
2017-07-05T03:43:12.966Z,4.53
2017-07-05T03:45:41.250Z,4.43
2017-07-05T03:48:09.527Z,4.70
2017-07-05T03:50:37.052Z,4.45
2017-07-05T03:53:04.571Z,4.45
2017-07-05T03:55:32.073Z,4.55
2017-07-05T03:57:59.590Z,4.57
2017-07-05T04:00:27.103Z,4.80
2017-07-05T04:02:55.388Z,4.95
2017-07-05T04:05:23.658Z,5.57
2017-07-05T04:07:51.935Z,4.20
2017-07-05T04:10:20.238Z,4.62
2017-07-05T04:12:47.744Z,4.87
2017-07-05T04:15:15.274Z,4.85
2017-07-05T04:17:42.794Z,5.00
2017-07-05T04:20:11.062Z,5.45
2017-07-05T04:22:38.623Z,6.07
2017-07-05T04:25:06.129Z,5.15
2017-07-05T04:27:33.654Z,5.53
2017-07-05T04:30:01.919Z,4.72
2017-07-05T04:32:29.467Z,5.07
2017-07-05T04:34:56.994Z,4.70
2017-07-05T04:37:24.508Z,5.55
2017-07-05T04:39:52.794Z,5.72
2017-07-05T04:42:21.065Z,5.10
2017-07-05T04:44:49.336Z,5.35
2017-07-05T04:47:17.618Z,5.20
2017-07-05T04:49:45.890Z,4.82
2017-07-05T04:52:14.185Z,5.35
2017-07-05T04:54:41.723Z,4.75
2017-07-05T04:57:09.998Z,4.22
2017-07-05T04:59:37.521Z,4.82
2017-07-05T05:02:05.026Z,4.97
2017-07-05T05:04:32.548Z,4.75
2017-07-05T05:07:00.071Z,5.00
2017-07-05T05:09:27.583Z,4.00
2017-07-05T05:11:55.108Z,4.65
2017-07-05T05:14:22.624Z,4.18
2017-07-05T05:16:50.923Z,4.45
2017-07-05T05:19:18.426Z,4.55
2017-07-05T05:21:45.931Z,4.40
2017-07-05T05:24:13.462Z,4.00
2017-07-05T05:26:41.752Z,4.10
2017-07-05T05:29:11.052Z,3.95
2017-07-05T05:31:39.701Z,4.30
2017-07-05T05:34:07.412Z,3.60
2017-07-05T05:36:34.936Z,3.65
2017-07-05T05:39:02.482Z,3.50
2017-07-05T05:41:30.003Z,4.03
2017-07-05T05:43:57.511Z,3.58
2017-07-05T05:46:25.071Z,3.90
2017-07-05T05:48:52.603Z,4.37
2017-07-05T05:51:20.110Z,4.03
2017-07-05T05:53:47.635Z,3.45
2017-07-05T05:56:15.135Z,3.90
2017-07-05T05:58:43.407Z,4.18
2017-07-05T06:01:10.919Z,3.80
2017-07-05T06:03:38.437Z,3.50
2017-07-05T06:06:05.973Z,3.90
2017-07-05T06:08:34.895Z,3.72
2017-07-05T06:11:02.391Z,3.20
2017-07-05T06:13:29.909Z,3.55
2017-07-05T06:15:57.418Z,3.40
2017-07-05T06:18:24.945Z,4.30
2017-07-05T06:20:52.455Z,3.10
2017-07-05T06:23:19.963Z,2.80
2017-07-05T06:25:47.488Z,3.87
2017-07-05T06:28:14.999Z,3.90
2017-07-05T06:30:42.562Z,3.10
2017-07-05T06:33:10.098Z,3.35
2017-07-05T06:35:37.595Z,3.30
2017-07-05T06:38:05.103Z,2.45
2017-07-05T06:40:32.611Z,2.90
2017-07-05T06:43:00.142Z,3.03
2017-07-05T06:45:28.463Z,2.92
2017-07-05T06:47:55.995Z,3.40
2017-07-05T06:50:23.502Z,2.80
2017-07-05T06:52:51.025Z,3.10
2017-07-05T06:55:18.545Z,2.45
2017-07-05T06:57:46.048Z,3.55
2017-07-05T07:00:13.584Z,2.90
2017-07-05T07:02:42.095Z,2.90
2017-07-05T07:05:09.599Z,2.78
2017-07-05T07:07:37.124Z,2.60
2017-07-05T07:10:04.637Z,2.37
2017-07-05T07:12:32.174Z,2.25
2017-07-05T07:14:59.679Z,2.58
2017-07-05T07:17:27.192Z,2.30
2017-07-05T07:19:54.719Z,2.37
2017-07-05T07:22:22.255Z,2.30
2017-07-05T07:24:49.803Z,2.30
2017-07-05T07:27:17.322Z,2.53
2017-07-05T07:29:44.835Z,2.42
2017-07-05T07:32:12.367Z,2.47
2017-07-05T07:34:39.876Z,2.35
2017-07-05T07:37:08.170Z,2.67
2017-07-05T07:39:35.679Z,2.40
2017-07-05T07:42:03.194Z,2.83
2017-07-05T07:44:30.720Z,2.10
2017-07-05T07:46:58.231Z,2.62
2017-07-05T07:49:25.765Z,1.98
2017-07-05T07:51:53.300Z,2.50
2017-07-05T07:54:20.815Z,2.55
2017-07-05T07:56:48.349Z,2.40
2017-07-05T07:59:15.860Z,2.25
2017-07-05T08:01:43.386Z,2.20
2017-07-05T08:04:10.894Z,2.75
2017-07-05T08:06:38.402Z,2.75
2017-07-05T08:09:05.938Z,2.12
2017-07-05T08:11:33.447Z,2.20
2017-07-05T08:14:01.021Z,1.90
2017-07-05T08:16:28.540Z,2.40
2017-07-05T08:18:56.068Z,2.37
2017-07-05T08:21:23.612Z,1.92
2017-07-05T08:23:51.131Z,2.20
2017-07-05T08:26:18.683Z,2.35
2017-07-05T08:28:46.199Z,2.20
2017-07-05T08:31:14.481Z,2.05
2017-07-05T08:33:42.778Z,2.20
2017-07-05T08:36:10.298Z,2.20
2017-07-05T08:38:37.827Z,2.17
2017-07-05T08:41:05.335Z,1.67
2017-07-05T08:43:33.629Z,1.90
2017-07-05T08:46:01.152Z,1.83
2017-07-05T08:48:28.695Z,2.40
2017-07-05T08:50:56.219Z,1.50
2017-07-05T08:53:23.730Z,1.80
2017-07-05T08:55:51.980Z,2.57
2017-07-05T08:58:19.498Z,2.60
2017-07-05T09:00:47.035Z,2.17
2017-07-05T09:03:14.546Z,2.20
2017-07-05T09:05:42.061Z,1.97
2017-07-05T09:08:10.355Z,1.90
2017-07-05T09:10:37.875Z,2.13
2017-07-05T09:13:05.444Z,1.80
2017-07-05T09:15:32.979Z,1.93
2017-07-05T09:18:00.491Z,2.17
2017-07-05T09:20:28.018Z,2.20
2017-07-05T09:22:55.522Z,2.33
2017-07-05T09:25:23.058Z,1.80
2017-07-05T09:27:50.570Z,2.20
2017-07-05T09:30:18.106Z,2.03
2017-07-05T09:32:45.641Z,2.20
2017-07-05T09:35:13.189Z,2.80
2017-07-05T09:37:41.499Z,2.23
2017-07-05T09:40:09.072Z,2.20
2017-07-05T09:42:36.599Z,2.20
2017-07-05T09:45:04.212Z,2.17
2017-07-05T09:47:31.742Z,2.33
2017-07-05T09:49:59.292Z,2.20
2017-07-05T09:52:26.920Z,2.47
2017-07-05T09:54:54.454Z,2.20
2017-07-05T09:57:21.979Z,2.30
2017-07-05T09:59:49.485Z,2.10
2017-07-05T10:02:17.024Z,2.50
2017-07-05T10:04:44.532Z,1.93
2017-07-05T10:07:12.039Z,1.90
2017-07-05T10:09:39.565Z,2.30
2017-07-05T10:12:07.098Z,2.17
2017-07-05T10:14:34.635Z,2.10
2017-07-05T10:17:02.163Z,1.80
2017-07-05T10:19:29.669Z,1.83
2017-07-05T10:21:57.186Z,2.43
2017-07-05T10:24:24.695Z,2.73
2017-07-05T10:26:52.234Z,2.53
2017-07-05T10:29:19.743Z,2.10
2017-07-05T10:31:47.263Z,2.37
2017-07-05T10:34:14.791Z,2.10
2017-07-05T10:36:42.300Z,1.73
2017-07-05T10:39:09.827Z,2.10
2017-07-05T10:41:37.344Z,2.40
2017-07-05T10:44:04.855Z,2.33
2017-07-05T10:46:32.397Z,2.23
2017-07-05T10:48:59.907Z,1.77
2017-07-05T10:51:27.453Z,2.20
2017-07-05T10:53:55.107Z,2.10
2017-07-05T10:56:22.611Z,1.70
2017-07-05T10:58:50.904Z,2.10
2017-07-05T11:01:19.187Z,2.13
2017-07-05T11:03:46.783Z,2.17
2017-07-05T11:06:14.285Z,2.10
2017-07-05T11:08:41.797Z,2.23
2017-07-05T11:11:09.336Z,2.27
2017-07-05T11:13:36.853Z,2.40
2017-07-05T11:16:04.391Z,2.30
2017-07-05T11:18:31.905Z,2.10
2017-07-05T11:20:59.416Z,2.47
2017-07-05T11:23:26.934Z,2.30
2017-07-05T11:25:54.445Z,2.20
2017-07-05T11:28:22.002Z,1.90
2017-07-05T11:30:49.526Z,1.83
2017-07-05T11:33:17.033Z,2.60
2017-07-05T11:35:44.564Z,2.03
2017-07-05T11:38:12.090Z,2.03
2017-07-05T11:40:39.643Z,1.70
2017-07-05T11:43:07.166Z,2.10
2017-07-05T11:45:34.675Z,1.90
2017-07-05T11:48:02.199Z,1.53
2017-07-05T11:50:30.475Z,1.90
2017-07-05T11:52:58.780Z,2.00
2017-07-05T11:55:26.343Z,1.90
2017-07-05T11:57:53.818Z,2.13
2017-07-05T12:00:21.354Z,1.90
2017-07-05T12:02:48.868Z,2.13
2017-07-05T12:05:16.401Z,2.00
2017-07-05T12:07:43.913Z,1.67
2017-07-05T12:10:11.427Z,2.20
2017-07-05T12:12:38.952Z,1.83
2017-07-05T12:15:06.463Z,1.77
2017-07-05T12:17:33.993Z,1.80
2017-07-05T12:20:01.495Z,1.97
2017-07-05T12:22:29.770Z,2.20
2017-07-05T12:24:58.063Z,2.10
2017-07-05T12:27:25.573Z,2.20
2017-07-05T12:29:53.109Z,2.33
2017-07-05T12:32:20.614Z,1.53
2017-07-05T12:34:48.141Z,1.97
2017-07-05T12:37:15.659Z,2.17
2017-07-05T12:39:43.179Z,2.53
2017-07-05T12:42:10.751Z,2.00
2017-07-05T12:44:38.255Z,1.90
2017-07-05T12:47:05.768Z,2.30
2017-07-05T12:49:33.298Z,2.20
2017-07-05T12:52:00.795Z,2.13
2017-07-05T12:54:29.092Z,2.17
2017-07-05T12:56:57.367Z,2.17
2017-07-05T12:59:24.880Z,1.77
2017-07-05T13:01:52.417Z,2.63
2017-07-05T13:04:19.926Z,1.90
2017-07-05T13:06:48.236Z,2.42
2017-07-05T13:09:15.739Z,2.60
2017-07-05T13:11:43.251Z,2.00
2017-07-05T13:14:10.787Z,2.00
2017-07-05T13:16:38.286Z,2.13
2017-07-05T13:19:05.817Z,2.30
2017-07-05T13:21:33.377Z,2.03
2017-07-05T13:24:00.842Z,1.60
2017-07-05T13:26:28.367Z,2.40
2017-07-05T13:28:55.887Z,2.03
2017-07-05T13:31:23.435Z,2.03
2017-07-05T13:33:50.946Z,2.43
2017-07-05T13:36:18.518Z,2.10
2017-07-05T13:38:46.029Z,3.17
2017-07-05T13:41:13.536Z,2.33
2017-07-05T13:43:41.842Z,2.53
2017-07-05T13:46:09.344Z,2.43
2017-07-05T13:48:36.866Z,1.97
2017-07-05T13:51:04.433Z,2.23
2017-07-05T13:53:31.952Z,2.10
2017-07-05T13:55:59.475Z,2.20
2017-07-05T13:58:26.986Z,2.10
2017-07-05T14:00:54.527Z,2.10
2017-07-05T14:03:22.805Z,2.13
2017-07-05T14:05:51.531Z,2.77
2017-07-05T14:08:19.069Z,2.00
2017-07-05T14:10:47.338Z,2.63
2017-07-05T14:13:15.635Z,2.07
2017-07-05T14:15:43.148Z,2.00
2017-07-05T14:18:10.668Z,2.10
2017-07-05T14:20:38.427Z,2.17
2017-07-05T14:23:05.938Z,2.23
2017-07-05T14:25:33.475Z,2.37
2017-07-05T14:28:00.999Z,2.23
2017-07-05T14:30:28.518Z,2.10
2017-07-05T14:32:56.033Z,2.00
2017-07-05T14:35:23.538Z,1.80
2017-07-05T14:37:51.070Z,2.23
2017-07-05T14:40:18.577Z,2.20
2017-07-05T14:42:47.346Z,2.10
2017-07-05T14:45:14.868Z,1.80
2017-07-05T14:47:42.371Z,1.80
2017-07-05T14:50:10.700Z,2.07
2017-07-05T14:52:38.233Z,2.43
2017-07-05T14:55:05.747Z,1.90
2017-07-05T14:57:33.269Z,2.03
2017-07-05T15:00:00.780Z,2.13
2017-07-05T15:02:28.313Z,2.00
2017-07-05T15:04:55.816Z,2.00
2017-07-05T15:07:23.652Z,1.87
2017-07-05T15:09:51.188Z,2.40
2017-07-05T15:12:18.697Z,2.00
2017-07-05T15:14:46.236Z,1.60
2017-07-05T15:17:13.758Z,1.87
2017-07-05T15:19:41.281Z,2.20
2017-07-05T15:22:08.814Z,2.50
2017-07-05T15:24:37.091Z,1.90
2017-07-05T15:27:04.627Z,2.20
2017-07-05T15:29:32.145Z,2.30
2017-07-05T15:31:59.658Z,1.90
2017-07-05T15:34:27.181Z,1.73
2017-07-05T15:36:54.699Z,1.83
2017-07-05T15:39:22.238Z,2.17
2017-07-05T15:41:49.749Z,2.10
2017-07-05T15:44:17.259Z,2.20
2017-07-05T15:46:44.779Z,2.00
2017-07-05T15:49:12.291Z,2.40
2017-07-05T15:51:40.594Z,2.13
2017-07-05T15:54:08.102Z,2.27
2017-07-05T15:56:35.609Z,1.60
2017-07-05T15:59:03.130Z,2.03
2017-07-05T16:01:30.631Z,2.00
2017-07-05T16:03:58.172Z,2.50
2017-07-05T16:06:26.443Z,3.30
2017-07-05T16:08:54.722Z,1.80
2017-07-05T16:11:23.015Z,1.90
2017-07-05T16:13:50.520Z,2.07
2017-07-05T16:16:18.052Z,2.00
2017-07-05T16:18:46.283Z,2.20
2017-07-05T16:21:14.677Z,2.40
2017-07-05T16:23:42.218Z,2.17
2017-07-05T16:26:09.769Z,1.93
2017-07-05T16:28:37.317Z,2.17
2017-07-05T16:31:05.975Z,1.93
2017-07-05T16:33:33.481Z,2.23
2017-07-05T16:36:01.011Z,2.10
2017-07-05T16:38:28.566Z,2.00
2017-07-05T16:40:56.120Z,2.27
2017-07-05T16:43:23.877Z,1.70
2017-07-05T16:45:51.466Z,1.83
2017-07-05T16:48:18.994Z,2.10
2017-07-05T16:50:46.528Z,2.50
2017-07-05T16:53:14.852Z,3.10
2017-07-05T16:55:42.359Z,2.20
2017-07-05T16:58:09.905Z,2.00
2017-07-05T17:00:38.309Z,2.30
2017-07-05T17:03:06.076Z,1.83
2017-07-05T17:05:33.639Z,2.47
2017-07-05T17:08:02.979Z,2.20
2017-07-05T17:10:30.497Z,1.80
2017-07-05T17:12:58.051Z,1.73
2017-07-05T17:15:25.579Z,2.13
2017-07-05T17:17:53.167Z,1.90
2017-07-05T17:20:20.719Z,2.10
2017-07-05T17:22:48.243Z,2.03
2017-07-05T17:25:16.114Z,2.13
2017-07-05T17:27:43.660Z,2.77
2017-07-05T17:30:11.361Z,2.23
2017-07-05T17:32:39.792Z,2.43
2017-07-05T17:35:07.387Z,2.27
2017-07-05T17:37:34.922Z,2.40
2017-07-05T17:40:02.482Z,1.97
2017-07-05T17:42:30.076Z,2.60
2017-07-05T17:44:57.680Z,2.70
2017-07-05T17:47:25.192Z,2.33
2017-07-05T17:49:52.755Z,2.50
2017-07-05T17:52:20.275Z,2.30
2017-07-05T17:54:49.384Z,2.00
2017-07-05T17:57:16.905Z,2.13
2017-07-05T17:59:44.644Z,2.60
2017-07-05T18:02:12.167Z,2.50
2017-07-05T18:04:39.695Z,3.17
2017-07-05T18:07:07.233Z,3.33
2017-07-05T18:09:34.761Z,3.23
2017-07-05T18:12:03.313Z,2.67
2017-07-05T18:14:31.855Z,3.30
2017-07-05T18:17:00.132Z,3.00
2017-07-05T18:19:28.460Z,3.00
2017-07-05T18:21:55.975Z,2.50
2017-07-05T18:24:23.512Z,3.10
2017-07-05T18:26:51.062Z,2.80
2017-07-05T18:29:19.456Z,2.67
2017-07-05T18:31:47.007Z,2.43
2017-07-05T18:34:14.519Z,3.10
2017-07-05T18:36:42.027Z,3.20
2017-07-05T18:39:10.537Z,3.50
2017-07-05T18:41:38.075Z,2.80
2017-07-05T18:44:05.623Z,3.35
2017-07-05T18:46:33.127Z,3.20
2017-07-05T18:49:00.659Z,3.28
2017-07-05T18:51:28.207Z,3.25
2017-07-05T18:53:55.723Z,2.90
2017-07-05T18:56:23.252Z,3.20
2017-07-05T18:58:50.776Z,2.95
2017-07-05T19:01:18.311Z,2.72
2017-07-05T19:03:45.832Z,3.12
2017-07-05T19:06:13.351Z,3.05
2017-07-05T19:08:40.879Z,3.62
2017-07-05T19:11:08.394Z,3.20
2017-07-05T19:13:35.924Z,2.97
2017-07-05T19:16:03.428Z,3.28
2017-07-05T19:18:30.947Z,3.00
2017-07-05T19:20:58.709Z,3.58
2017-07-05T19:23:27.062Z,3.50
2017-07-05T19:25:54.655Z,3.00
2017-07-05T19:28:22.943Z,3.80
2017-07-05T19:30:51.243Z,3.33
2017-07-05T19:33:18.783Z,3.30
2017-07-05T19:35:46.321Z,2.90
2017-07-05T19:38:13.846Z,2.90
2017-07-05T19:40:41.358Z,3.35
2017-07-05T19:43:09.655Z,2.80
2017-07-05T19:45:37.199Z,3.87
2017-07-05T19:48:04.746Z,3.45
2017-07-05T19:50:32.296Z,3.80
2017-07-05T19:52:59.799Z,2.97
2017-07-05T19:55:27.330Z,3.50
2017-07-05T19:57:54.902Z,3.95
2017-07-05T20:00:22.463Z,3.75
2017-07-05T20:02:49.979Z,3.67
2017-07-05T20:05:17.511Z,4.22
2017-07-05T20:07:45.038Z,4.12
2017-07-05T20:10:13.322Z,3.25
2017-07-05T20:12:40.870Z,3.42
2017-07-05T20:15:08.395Z,4.00
2017-07-05T20:17:35.923Z,4.70
2017-07-05T20:20:03.435Z,3.67
2017-07-05T20:22:30.934Z,4.15
2017-07-05T20:24:58.452Z,4.72
2017-07-05T20:27:25.991Z,4.47
2017-07-05T20:29:53.543Z,5.07
2017-07-05T20:32:21.043Z,4.72
2017-07-05T20:34:49.323Z,5.50
2017-07-05T20:37:17.617Z,5.50
2017-07-05T20:39:45.139Z,5.32
2017-07-05T20:42:12.691Z,5.80
2017-07-05T20:44:40.511Z,5.40
2017-07-05T20:47:08.069Z,4.80
2017-07-05T20:49:35.634Z,5.57
2017-07-05T20:52:03.172Z,4.95
2017-07-05T20:54:30.746Z,5.12
2017-07-05T20:56:58.289Z,4.87
2017-07-05T20:59:25.842Z,5.07
2017-07-05T21:01:53.405Z,5.40
2017-07-05T21:04:20.957Z,5.25
2017-07-05T21:06:49.316Z,5.68
2017-07-05T21:09:16.864Z,5.22
2017-07-05T21:11:44.426Z,5.35
2017-07-05T21:14:11.992Z,5.28
2017-07-05T21:16:39.547Z,5.68
2017-07-05T21:19:07.116Z,5.87
2017-07-05T21:21:34.673Z,5.40
2017-07-05T21:24:02.238Z,5.72
2017-07-05T21:26:29.807Z,6.00
2017-07-05T21:28:57.613Z,5.45
2017-07-05T21:31:25.217Z,6.10
2017-07-05T21:33:52.770Z,5.47
2017-07-05T21:36:20.317Z,5.70
2017-07-05T21:38:47.877Z,5.35
2017-07-05T21:41:15.430Z,5.30
2017-07-05T21:43:42.997Z,5.45
2017-07-05T21:46:10.545Z,5.50
2017-07-05T21:48:38.101Z,5.07
2017-07-05T21:51:05.680Z,4.97
2017-07-05T21:53:33.229Z,5.00
2017-07-05T21:56:00.806Z,5.47
2017-07-05T21:58:28.373Z,4.95
2017-07-05T22:00:56.188Z,5.20
2017-07-05T22:03:23.759Z,5.40
2017-07-05T22:05:51.749Z,5.45
2017-07-05T22:08:19.314Z,5.12
2017-07-05T22:10:46.866Z,5.12
2017-07-05T22:13:14.460Z,5.30
2017-07-05T22:15:42.004Z,6.30
2017-07-05T22:18:09.562Z,5.60
2017-07-05T22:20:37.150Z,5.72
2017-07-05T22:23:04.696Z,5.30
2017-07-05T22:25:32.273Z,5.97
2017-07-05T22:27:59.828Z,5.30
2017-07-05T22:30:27.379Z,5.57
2017-07-05T22:32:54.955Z,5.20
2017-07-05T22:35:22.517Z,5.80
2017-07-05T22:37:50.848Z,5.57
2017-07-05T22:40:18.402Z,5.20
2017-07-05T22:42:45.948Z,4.87
2017-07-05T22:45:13.512Z,4.97
2017-07-05T22:47:41.082Z,6.28
2017-07-05T22:50:08.669Z,5.30
2017-07-05T22:52:36.220Z,5.28
2017-07-05T22:55:03.809Z,5.20
2017-07-05T22:57:31.373Z,5.30
2017-07-05T22:59:58.926Z,5.15
2017-07-05T23:02:26.497Z,4.95
2017-07-05T23:04:54.049Z,5.87
2017-07-05T23:07:21.613Z,4.90
2017-07-05T23:09:49.164Z,4.70
2017-07-05T23:12:16.725Z,4.55
2017-07-05T23:14:44.297Z,5.20
2017-07-05T23:17:12.617Z,5.10
2017-07-05T23:19:40.199Z,5.00
2017-07-05T23:22:07.712Z,5.35
2017-07-05T23:24:35.279Z,4.78
2017-07-05T23:27:02.784Z,5.03
2017-07-05T23:29:30.331Z,5.00
2017-07-05T23:31:57.853Z,5.30
2017-07-05T23:34:25.359Z,5.70
2017-07-05T23:36:52.914Z,5.95
2017-07-05T23:39:20.425Z,5.32
2017-07-05T23:41:48.707Z,5.25
2017-07-05T23:44:16.232Z,5.60
2017-07-05T23:46:43.749Z,5.87
2017-07-05T23:49:11.294Z,5.53
2017-07-05T23:51:38.831Z,4.90
2017-07-05T23:54:06.347Z,6.18
2017-07-05T23:56:33.885Z,5.97
2017-07-05T23:59:01.395Z,5.40
